Time;durP1;ratioP1;P1;durP2;ratioP2;P2;SDS_P1;SDS_P2;PMS_P1;PMS_P2;Temp;Humidity;BMP_temperature;BMP_pressure;BME280_temperature;BME280_humidity;BME280_pressure;Samples;Min_cycle;Max_cycle;Signal;HPM_P1;HPM_P2
2023/09/17 00:01:50;;;;;;;12.25;7.72;;;;;;;-143.21;65.32;71830.25;5072735;28;20205;-82
2023/09/17 00:04:17;;;;;;;15.55;8.27;;;;;;;-143.21;65.80;71834.22;5071552;28;20221;-82
2023/09/17 00:06:45;;;;;;;10.30;7.70;;;;;;;-143.21;65.26;71826.28;5070870;28;20236;-82
2023/09/17 00:09:12;;;;;;;8.10;7.25;;;;;;;-143.21;65.14;71836.22;5071937;28;20209;-82
2023/09/17 00:11:39;;;;;;;12.73;7.47;;;;;;;-143.21;64.91;71838.19;5071433;28;20213;-83
2023/09/17 00:14:06;;;;;;;9.52;7.00;;;;;;;-143.21;64.70;71834.22;5071419;28;20212;-83
2023/09/17 00:16:33;;;;;;;10.93;7.03;;;;;;;-143.21;64.42;71832.25;5072713;28;20604;-84
2023/09/17 00:19:00;;;;;;;8.75;6.75;;;;;;;-143.21;64.41;71848.09;5072586;28;20205;-84
2023/09/17 00:21:27;;;;;;;11.95;6.63;;;;;;;-143.21;64.32;71848.09;5071849;28;20206;-84
2023/09/17 00:23:55;;;;;;;8.90;7.05;;;;;;;-143.21;64.06;71828.28;5071924;28;20240;-83
2023/09/17 00:26:22;;;;;;;14.68;6.95;;;;;;;-143.21;62.95;71812.41;5070957;28;20209;-84
2023/09/17 00:28:49;;;;;;;12.00;6.43;;;;;;;-143.21;63.51;71804.47;5071645;28;20248;-84
2023/09/17 00:31:16;;;;;;;10.75;6.95;;;;;;;-143.21;62.92;71814.41;5072044;28;20201;-83
2023/09/17 00:33:43;;;;;;;9.73;7.25;;;;;;;-143.21;63.23;71828.28;5071495;28;20197;-83
2023/09/17 00:36:10;;;;;;;8.35;7.00;;;;;;;-143.21;63.61;71832.25;5069340;28;20213;-83
2023/09/17 00:38:37;;;;;;;9.85;7.63;;;;;;;-143.21;63.66;71856.03;5070369;28;20247;-83
2023/09/17 00:41:05;;;;;;;12.40;8.73;;;;;;;-143.21;64.16;71863.97;5071331;28;20212;-83
2023/09/17 00:43:32;;;;;;;9.98;8.40;;;;;;;-143.21;64.14;71867.94;5072545;28;20609;-83
2023/09/17 00:45:59;;;;;;;18.98;8.65;;;;;;;-143.21;64.06;71873.88;5072256;28;20224;-83
2023/09/17 00:48:27;;;;;;;12.32;9.13;;;;;;;-143.21;64.46;71881.81;5073539;28;20209;-84
2023/09/17 00:50:55;;;;;;;10.00;8.90;;;;;;;-143.21;64.59;71877.84;5071921;28;20228;-83
2023/09/17 00:53:22;;;;;;;12.93;8.70;;;;;;;-143.21;64.56;71875.88;5071577;28;20193;-82
2023/09/17 00:55:49;;;;;;;10.55;8.00;;;;;;;-143.21;65.07;71869.91;5068718;28;20212;-82
2023/09/17 00:58:18;;;;;;;10.48;7.00;;;;;;;-143.21;64.98;71856.03;5071451;28;20209;-82
2023/09/17 01:00:45;;;;;;;8.93;6.88;;;;;;;-143.21;64.22;71836.22;5071578;28;20621;-83
2023/09/17 01:03:12;;;;;;;8.73;6.95;;;;;;;-143.21;63.85;71832.25;5070453;28;20201;-84
2023/09/17 01:05:42;;;;;;;8.13;6.40;;;;;;;-143.21;64.04;71836.22;5070681;28;20268;-87
2023/09/17 01:08:10;;;;;;;9.15;6.97;;;;;;;-143.21;64.31;71852.06;5071121;28;20209;-88
2023/09/17 01:10:39;;;;;;;10.23;7.15;;;;;;;-143.21;64.61;71854.06;5071308;28;20245;-85
2023/09/17 01:13:06;;;;;;;9.20;7.10;;;;;;;-143.21;64.90;71860.00;5070944;28;21578;-84
2023/09/17 01:15:35;;;;;;;10.80;7.45;;;;;;;-143.21;65.15;71885.78;5071304;28;20213;-85
2023/09/17 01:18:03;;;;;;;12.18;8.00;;;;;;;-143.21;65.35;71875.88;5070833;28;20205;-84
2023/09/17 01:20:33;;;;;;;13.40;8.57;;;;;;;-143.21;65.67;71877.84;5070358;28;20197;-84
2023/09/17 01:23:05;;;;;;;14.20;8.88;;;;;;;-143.21;65.75;71885.78;5071165;28;20205;-84
2023/09/17 01:25:46;;;;;;;14.15;8.80;;;;;;;-143.21;66.41;71883.81;5070671;28;20194;-83
2023/09/17 01:28:15;;;;;;;16.98;10.57;;;;;;;-143.21;66.11;71873.88;5067658;28;20201;-83
2023/09/17 01:30:42;;;;;;;14.30;9.70;;;;;;;-143.21;66.16;71862.00;5070836;28;20197;-83
2023/09/17 01:33:10;;;;;;;14.27;10.48;;;;;;;-143.21;66.41;71877.84;5070586;28;20209;-83
2023/09/17 01:35:57;;;;;;;15.73;10.52;;;;;;;-143.21;66.50;71879.84;5070872;28;20240;-83
2023/09/17 01:38:30;;;;;;;16.40;11.50;;;;;;;-143.21;66.57;71881.81;5068127;28;20216;-83
2023/09/17 01:40:58;;;;;;;19.30;11.48;;;;;;;-143.21;66.89;71883.81;5070517;28;20201;-83
2023/09/17 01:43:26;;;;;;;16.38;12.00;;;;;;;-143.21;67.19;71885.78;5070490;28;20227;-82
2023/09/17 01:45:54;;;;;;;19.55;12.30;;;;;;;-143.21;67.61;71887.78;5070740;28;20224;-83
2023/09/17 01:48:22;;;;;;;17.60;12.57;;;;;;;-143.21;67.98;71885.78;5070108;28;20237;-83
2023/09/17 01:50:50;;;;;;;18.25;13.02;;;;;;;-143.21;68.32;71877.84;5070505;28;20209;-82
2023/09/17 01:53:17;;;;;;;16.55;13.52;;;;;;;-143.21;68.45;71891.72;5070305;28;20201;-84
2023/09/17 01:55:44;;;;;;;20.10;14.15;;;;;;;-143.21;69.18;71891.72;5070841;28;20198;-82
2023/09/17 01:58:13;;;;;;;20.25;14.48;;;;;;;-143.21;68.66;71887.78;5070007;28;20197;-84
2023/09/17 02:00:41;;;;;;;21.30;14.77;;;;;;;-143.21;68.47;71877.84;5069994;28;20205;-83
2023/09/17 02:03:08;;;;;;;18.92;14.13;;;;;;;-143.21;68.45;71877.84;5070373;28;20209;-84
2023/09/17 02:05:35;;;;;;;26.77;16.00;;;;;;;-143.21;68.73;71873.88;5070032;28;20330;-85
2023/09/17 02:08:03;;;;;;;21.25;15.27;;;;;;;-143.21;68.74;71879.84;5071608;28;20201;-85
2023/09/17 02:10:30;;;;;;;20.90;16.02;;;;;;;-143.21;69.31;71897.69;5072254;28;20201;-85
2023/09/17 02:12:57;;;;;;;19.23;14.70;;;;;;;-143.21;69.74;71903.63;5070840;28;20201;-85
2023/09/17 02:15:24;;;;;;;25.02;16.02;;;;;;;-143.21;70.06;71905.63;5070155;28;20660;-85
2023/09/17 02:17:52;;;;;;;21.05;16.20;;;;;;;-143.21;70.43;71897.69;5069998;28;20201;-84
2023/09/17 02:20:20;;;;;;;22.13;16.70;;;;;;;-143.21;70.68;71913.53;5069682;28;20213;-84
2023/09/17 02:22:46;;;;;;;20.85;15.93;;;;;;;-143.21;70.69;71907.59;5067188;28;20297;-84
2023/09/17 02:25:13;;;;;;;22.10;16.30;;;;;;;-143.21;71.01;71923.47;5066999;28;20221;-88
2023/09/17 02:27:40;;;;;;;23.15;16.77;;;;;;;-143.21;71.09;71901.66;5070201;28;20209;-88
2023/09/17 02:30:08;;;;;;;22.25;16.33;;;;;;;-143.21;70.75;71897.69;5069812;28;20229;-88
2023/09/17 02:32:37;;;;;;;21.67;15.93;;;;;;;-143.21;70.48;71881.81;5070287;28;20219;-85
2023/09/17 02:35:06;;;;;;;23.70;16.73;;;;;;;-143.21;70.32;71883.81;5070102;28;20201;-86
2023/09/17 02:37:33;;;;;;;24.90;16.85;;;;;;;-143.21;70.46;71889.75;5071569;28;20198;-86
2023/09/17 02:40:02;;;;;;;23.60;16.88;;;;;;;-143.21;70.32;71911.56;5070026;28;20201;-87
2023/09/17 02:42:30;;;;;;;22.85;16.73;;;;;;;-143.21;70.42;71915.53;5069947;28;20280;-87
2023/09/17 02:44:56;;;;;;;21.77;16.67;;;;;;;-143.21;70.29;71921.47;5070027;28;20255;-87
2023/09/17 02:47:23;;;;;;;22.15;17.10;;;;;;;-143.21;70.48;71913.53;5070137;28;20201;-85
2023/09/17 02:49:50;;;;;;;22.95;17.55;;;;;;;-143.21;70.42;71907.59;5071990;28;20212;-86
2023/09/17 02:52:18;;;;;;;24.83;17.45;;;;;;;-143.21;70.98;71921.47;5073926;28;20211;-87
2023/09/17 02:54:46;;;;;;;24.13;16.50;;;;;;;-143.21;71.20;71921.47;5070467;28;20664;-87
2023/09/17 02:57:12;;;;;;;25.50;17.70;;;;;;;-143.21;71.15;71917.50;5073838;28;20207;-87
2023/09/17 02:59:39;;;;;;;20.85;16.70;;;;;;;-143.21;71.01;71923.47;5073941;28;20232;-87
2023/09/17 03:02:06;;;;;;;21.55;17.08;;;;;;;-143.21;71.16;71925.44;5074554;28;20213;-84
2023/09/17 03:04:33;;;;;;;25.00;16.70;;;;;;;-143.21;70.44;71905.63;5072868;28;20249;-83
2023/09/17 03:07:00;;;;;;;26.05;17.23;;;;;;;-143.21;70.45;71907.59;5072218;28;20243;-82
2023/09/17 03:09:29;;;;;;;27.00;16.30;;;;;;;-143.21;70.18;71905.63;5073049;28;20201;-83
2023/09/17 03:11:56;;;;;;;26.60;17.38;;;;;;;-143.21;70.08;71909.56;5072609;28;20215;-83
2023/09/17 03:14:23;;;;;;;27.10;17.25;;;;;;;-143.21;70.32;71927.44;5072640;28;20201;-81
2023/09/17 03:16:50;;;;;;;24.13;17.08;;;;;;;-143.21;70.17;71923.47;5073443;28;20201;-82
2023/09/17 03:19:19;;;;;;;22.17;16.58;;;;;;;-143.21;70.31;71925.44;5073352;28;20197;-82
2023/09/17 03:21:46;;;;;;;23.17;15.55;;;;;;;-143.21;70.31;71933.38;5073261;28;20229;-86
2023/09/17 03:24:15;;;;;;;25.58;15.27;;;;;;;-143.21;70.49;71935.34;5069516;28;20221;-86
2023/09/17 03:26:43;;;;;;;23.65;16.85;;;;;;;-143.21;70.32;71941.31;5072564;28;20730;-86
2023/09/17 03:29:12;;;;;;;20.73;15.23;;;;;;;-143.21;70.15;71943.28;5072916;28;20201;-79
2023/09/17 03:31:41;;;;;;;19.42;14.65;;;;;;;-143.21;69.79;71949.25;5072649;28;20217;-87
2023/09/17 03:34:07;;;;;;;19.58;14.65;;;;;;;-143.21;70.00;71951.22;5072040;28;20260;-87
2023/09/17 03:36:35;;;;;;;22.02;15.15;;;;;;;-143.21;70.01;71951.22;5070944;28;20201;-88
2023/09/17 03:39:05;;;;;;;21.60;14.95;;;;;;;-143.21;70.16;71951.22;5073138;28;20193;-87
2023/09/17 03:41:32;;;;;;;25.80;15.15;;;;;;;-143.21;70.30;71953.19;5072230;28;20204;-86
2023/09/17 03:44:01;;;;;;;21.05;15.25;;;;;;;-143.21;70.22;71937.34;5072597;28;20280;-85
2023/09/17 03:46:30;;;;;;;21.23;14.70;;;;;;;-143.21;69.38;71921.47;5072666;28;20198;-84
2023/09/17 03:48:57;;;;;;;24.70;14.98;;;;;;;-143.21;69.03;71915.53;5074239;28;20205;-85
2023/09/17 03:51:23;;;;;;;20.45;14.55;;;;;;;-143.21;68.79;71917.50;5072159;28;20197;-85
2023/09/17 03:53:51;;;;;;;27.25;13.75;;;;;;;-143.21;69.05;71927.44;5072517;28;20216;-84
2023/09/17 03:56:18;;;;;;;21.38;15.05;;;;;;;-143.21;69.26;71931.38;5072231;28;20255;-84
2023/09/17 03:58:45;;;;;;;21.13;14.32;;;;;;;-143.21;69.30;71941.31;5072169;28;20210;-87
2023/09/17 04:01:13;;;;;;;23.67;14.30;;;;;;;-143.21;69.51;71951.22;5072413;28;20679;-86
2023/09/17 04:03:40;;;;;;;21.05;14.05;;;;;;;-143.21;70.06;71978.97;5072805;28;20209;-87
2023/09/17 04:06:07;;;;;;;24.05;14.90;;;;;;;-143.21;70.35;71969.06;5072676;28;20719;-85
2023/09/17 04:08:34;;;;;;;25.05;15.30;;;;;;;-143.21;70.37;71965.09;5072650;28;20210;-85
2023/09/17 04:11:01;;;;;;;23.15;15.57;;;;;;;-143.21;70.42;71963.13;5071750;28;20209;-84
2023/09/17 04:13:29;;;;;;;22.98;15.65;;;;;;;-143.21;70.74;71963.13;5071697;28;20207;-85
2023/09/17 04:15:56;;;;;;;23.80;15.30;;;;;;;-143.21;70.73;71967.09;5072884;28;20197;-87
2023/09/17 04:18:24;;;;;;;23.85;15.57;;;;;;;-143.21;70.73;71965.09;5072415;28;20736;-87
2023/09/17 04:20:51;;;;;;;22.63;16.20;;;;;;;-143.21;71.05;71975.00;5072222;28;20205;-87
2023/09/17 04:23:18;;;;;;;25.35;16.52;;;;;;;-143.21;70.96;71971.06;5072411;28;20209;-85
2023/09/17 04:25:46;;;;;;;27.52;15.73;;;;;;;-143.21;71.06;71969.06;5068905;28;20294;-85
2023/09/17 04:28:13;;;;;;;23.48;16.42;;;;;;;-143.21;70.51;71955.19;5068396;28;20579;-78
2023/09/17 04:30:40;;;;;;;23.63;16.17;;;;;;;-143.21;70.37;71951.22;5072054;28;20721;-85
2023/09/17 04:33:07;;;;;;;24.38;15.90;;;;;;;-143.21;70.51;71955.19;5072073;28;20217;-82
2023/09/17 04:35:35;;;;;;;26.13;16.73;;;;;;;-143.21;70.65;71959.16;5071456;28;20199;-85
2023/09/17 04:38:02;;;;;;;27.10;17.30;;;;;;;-143.21;70.73;71957.16;5071707;28;20205;-85
2023/09/17 04:40:29;;;;;;;23.15;16.70;;;;;;;-143.21;70.70;71969.06;5071734;28;20300;-85
2023/09/17 04:42:56;;;;;;;25.88;17.10;;;;;;;-143.21;71.23;71965.09;5071898;28;20572;-84
2023/09/17 04:45:34;;;;;;;26.05;16.98;;;;;;;-143.21;71.53;71965.09;5072090;28;20225;-85
2023/09/17 04:48:01;;;;;;;25.27;17.88;;;;;;;-143.21;71.66;71967.09;5072057;28;20250;-85
2023/09/17 04:50:28;;;;;;;25.05;17.42;;;;;;;-143.21;71.65;71961.13;5071661;28;20307;-84
2023/09/17 04:52:57;;;;;;;25.77;17.67;;;;;;;-143.21;71.89;71961.13;5071406;28;20250;-86
2023/09/17 04:55:24;;;;;;;24.90;17.52;;;;;;;-143.21;71.85;71953.19;5071148;28;20206;-84
2023/09/17 04:57:52;;;;;;;29.98;18.25;;;;;;;-143.21;72.19;71961.13;5071640;28;20197;-84
2023/09/17 05:00:20;;;;;;;25.80;17.60;;;;;;;-143.21;72.28;71961.13;5072169;28;20532;-83
2023/09/17 05:02:48;;;;;;;28.85;17.00;;;;;;;-143.21;72.56;71951.22;5067492;28;20201;-83
2023/09/17 05:05:18;;;;;;;24.45;16.98;;;;;;;-143.21;72.23;71935.34;5066328;28;20310;-83
2023/09/17 05:07:46;;;;;;;26.92;17.35;;;;;;;-143.21;71.85;71927.44;5071267;28;20699;-84
2023/09/17 05:10:15;;;;;;;24.75;16.27;;;;;;;-143.21;71.96;71933.38;5071466;28;20274;-83
2023/09/17 05:12:43;;;;;;;24.75;17.13;;;;;;;-143.21;72.07;71921.47;5070650;28;20220;-84
2023/09/17 05:15:10;;;;;;;25.80;18.27;;;;;;;-143.21;72.31;71931.38;5071424;28;20207;-82
2023/09/17 05:17:37;;;;;;;28.88;17.27;;;;;;;-143.21;72.40;71933.38;5071341;28;20268;-83
2023/09/17 05:20:06;;;;;;;27.77;18.30;;;;;;;-143.21;72.77;71933.38;5071151;28;20255;-84
2023/09/17 05:22:33;;;;;;;26.25;17.48;;;;;;;-143.21;72.94;71939.31;5070866;28;20198;-84
2023/09/17 05:25:00;;;;;;;31.33;17.48;;;;;;;-143.21;73.19;71933.38;5070251;28;20681;-86
2023/09/17 05:27:28;;;;;;;26.33;17.70;;;;;;;-143.21;73.03;71933.38;5070901;28;20211;-84
2023/09/17 05:29:55;;;;;;;25.55;16.83;;;;;;;-143.21;73.13;71933.38;5071201;28;20201;-87
2023/09/17 05:32:22;;;;;;;25.25;17.35;;;;;;;-143.21;72.84;71923.47;5070734;28;20213;-85
2023/09/17 05:34:49;;;;;;;28.30;17.50;;;;;;;-143.21;73.28;71923.47;5070547;28;20219;-85
2023/09/17 05:37:16;;;;;;;24.85;17.40;;;;;;;-143.21;73.01;71897.69;5067468;28;20683;-86
2023/09/17 05:39:42;;;;;;;27.00;17.77;;;;;;;-143.21;72.78;71891.72;5071193;28;20221;-85
2023/09/17 05:42:09;;;;;;;30.08;17.55;;;;;;;-143.21;72.45;71889.75;5070231;28;20691;-86
2023/09/17 05:44:37;;;;;;;27.42;17.83;;;;;;;-143.21;72.42;71885.78;5071433;28;20282;-87
2023/09/17 05:47:04;;;;;;;27.80;17.65;;;;;;;-143.21;72.44;71895.69;5071186;28;20216;-87
2023/09/17 05:49:31;;;;;;;24.88;17.17;;;;;;;-143.21;72.68;71901.66;5069424;28;20208;-85
2023/09/17 05:51:59;;;;;;;28.17;17.77;;;;;;;-143.21;73.39;71917.50;5070724;28;20205;-86
2023/09/17 05:54:26;;;;;;;26.25;16.95;;;;;;;-143.21;73.28;71909.56;5070269;28;20244;-86
2023/09/17 05:56:52;;;;;;;30.52;17.77;;;;;;;-143.21;73.05;71909.56;5070131;28;20201;-85
2023/09/17 05:59:19;;;;;;;28.05;18.05;;;;;;;-143.21;73.40;71903.63;5070945;28;20198;-85
2023/09/17 06:01:48;;;;;;;30.42;18.48;;;;;;;-143.21;73.60;71911.56;5070508;28;20193;-87
2023/09/17 06:04:14;;;;;;;30.08;20.05;;;;;;;-143.21;73.62;71903.63;5067834;28;20232;-89
2023/09/17 06:06:41;;;;;;;29.05;19.30;;;;;;;-143.21;73.49;71895.69;5070630;28;20241;-88
2023/09/17 06:09:08;;;;;;;30.85;19.30;;;;;;;-143.21;73.33;71885.78;5070640;28;20209;-88
2023/09/17 06:11:35;;;;;;;31.67;20.90;;;;;;;-143.21;72.99;71875.88;5070295;28;20216;-89
2023/09/17 06:14:02;;;;;;;32.67;20.45;;;;;;;-143.21;72.93;71871.91;5069992;28;20201;-90
2023/09/17 06:16:29;;;;;;;31.50;20.65;;;;;;;-143.21;73.17;71873.88;5070568;28;20193;-89
2023/09/17 06:18:57;;;;;;;33.33;20.42;;;;;;;-143.21;73.15;71871.91;5070192;28;20209;-89
2023/09/17 06:21:25;;;;;;;35.80;20.35;;;;;;;-143.21;72.70;71863.97;5071745;28;20209;-90
2023/09/17 06:23:53;;;;;;;34.15;20.98;;;;;;;-143.21;72.92;71867.94;5071925;28;20197;-89
2023/09/17 06:26:19;;;;;;;32.35;21.42;;;;;;;-143.21;72.86;71863.97;5073097;28;20225;-87
2023/09/17 06:28:46;;;;;;;33.92;21.85;;;;;;;-143.21;72.86;71862.00;5072033;28;20208;-88
2023/09/17 06:31:13;;;;;;;34.53;21.92;;;;;;;-143.21;72.74;71852.06;5070204;28;20231;-89
2023/09/17 06:33:42;;;;;;;37.08;22.83;;;;;;;-143.21;72.63;71846.13;5069406;28;20200;-88
2023/09/17 06:36:13;;;;;;;38.20;22.80;;;;;;;-143.21;72.48;71850.09;5071846;28;20205;-88
2023/09/17 06:38:40;;;;;;;33.88;22.42;;;;;;;-143.21;72.28;71842.16;5072273;28;20615;-88
2023/09/17 06:41:10;;;;;;;33.80;22.35;;;;;;;-143.21;72.52;71840.19;5072014;28;20292;-89
2023/09/17 06:43:39;;;;;;;34.08;21.73;;;;;;;-143.21;72.05;71820.34;5070542;28;21202;-88
2023/09/17 06:46:06;;;;;;;32.08;21.35;;;;;;;-143.21;71.33;71808.44;5076073;28;20320;-88
2023/09/17 06:48:33;;;;;;;37.40;21.35;;;;;;;-143.21;71.23;71798.53;5074229;28;20204;-87
2023/09/17 06:51:01;;;;;;;31.92;20.92;;;;;;;-143.21;71.23;71796.56;5074210;28;20205;-88
2023/09/17 06:53:29;;;;;;;33.40;20.85;;;;;;;-143.21;71.29;71798.53;5075151;28;20294;-88
2023/09/17 06:56:00;;;;;;;29.38;19.33;;;;;;;-143.21;71.22;71800.53;5074098;28;20202;-89
2023/09/17 06:58:27;;;;;;;31.55;20.45;;;;;;;-143.21;71.31;71802.50;5075039;28;20237;-85
2023/09/17 07:00:54;;;;;;;29.55;19.67;;;;;;;-143.21;71.60;71808.44;5069890;28;20197;-85
2023/09/17 07:03:21;;;;;;;32.65;19.80;;;;;;;-143.21;71.40;71800.53;5070761;28;20671;-85
2023/09/17 07:05:48;;;;;;;31.58;19.05;;;;;;;-143.21;70.85;71800.53;5073143;28;20237;-87
2023/09/17 07:08:15;;;;;;;33.88;20.20;;;;;;;-143.21;70.97;71786.63;5072529;28;20678;-86
2023/09/17 07:10:44;;;;;;;29.60;19.13;;;;;;;-143.21;71.01;71782.69;5072329;28;20292;-85
2023/09/17 07:13:13;;;;;;;29.50;19.15;;;;;;;-143.21;70.70;71760.88;5071305;28;20209;-85
2023/09/17 07:15:45;;;;;;;29.38;19.60;;;;;;;-143.21;70.26;71752.94;5070383;28;20205;-83
2023/09/17 07:18:12;;;;;;;30.60;20.25;;;;;;;-143.21;70.06;71746.97;5071109;28;20781;-86
2023/09/17 07:20:39;;;;;;;31.77;20.10;;;;;;;-143.21;69.50;71739.06;5071169;28;20213;-86
2023/09/17 07:23:07;;;;;;;33.47;19.45;;;;;;;-143.21;69.05;71727.16;5072285;28;20601;-84
2023/09/17 07:25:34;;;;;;;30.48;19.40;;;;;;;-143.21;68.48;71717.25;5070095;28;20229;-84
2023/09/17 07:28:07;;;;;;;27.23;19.58;;;;;;;-143.21;68.11;71709.31;5069418;28;20197;-83
2023/09/17 07:30:45;;;;;;;29.10;19.23;;;;;;;-143.21;67.90;71703.34;5069628;28;20653;-84
2023/09/17 07:33:13;;;;;;;32.40;19.75;;;;;;;-143.21;67.08;71693.44;5069865;28;20645;-84
2023/09/17 07:35:40;;;;;;;29.40;19.70;;;;;;;-143.21;67.34;71697.41;5070661;28;20263;-84
2023/09/17 07:38:07;;;;;;;28.10;19.30;;;;;;;-143.21;67.09;71695.44;5073786;28;20725;-85
2023/09/17 07:40:34;;;;;;;26.60;18.73;;;;;;;-143.21;66.44;71677.59;5073495;28;20212;-84
2023/09/17 07:43:06;;;;;;;26.70;18.83;;;;;;;-143.21;66.22;71661.72;5074016;28;20205;-84
2023/09/17 07:45:34;;;;;;;34.85;20.30;;;;;;;-143.21;65.54;71651.81;5074477;28;20209;-84
2023/09/17 07:48:03;;;;;;;29.58;19.83;;;;;;;-143.21;65.74;71637.94;5075871;28;20223;-90
2023/09/17 07:50:29;;;;;;;31.58;20.98;;;;;;;-143.21;65.32;71622.06;5077545;28;20250;-84
2023/09/17 07:52:57;;;;;;;26.20;18.67;;;;;;;-143.21;64.70;71614.13;5078166;28;20202;-95
2023/09/17 07:55:24;;;;;;;30.67;19.75;;;;;;;-143.21;63.75;71608.19;5079805;28;20190;-96
2023/09/17 07:57:51;;;;;;;26.40;19.48;;;;;;;-143.21;64.18;71618.09;5077231;28;20201;-93
2023/09/17 08:00:21;;;;;;;30.17;19.35;;;;;;;-143.21;64.56;71626.03;5076545;28;20209;-96
2023/09/17 08:02:48;;;;;;;29.92;20.35;;;;;;;-143.21;64.51;71624.06;5074450;28;20213;-91
2023/09/17 08:05:16;;;;;;;27.45;20.15;;;;;;;-143.21;64.36;71622.06;5075588;28;20198;-93
2023/09/17 08:07:43;;;;;;;30.75;21.08;;;;;;;-143.21;63.98;71620.09;5071680;28;20194;-91
2023/09/17 08:10:10;;;;;;;33.75;19.80;;;;;;;-143.21;64.16;71620.09;5074991;28;20289;-93
2023/09/17 08:12:42;;;;;;;31.20;20.38;;;;;;;-143.21;64.07;71622.06;5081786;28;20198;-88
2023/09/17 08:15:10;;;;;;;31.90;20.90;;;;;;;-143.21;63.91;71618.09;5076962;28;20189;-86
2023/09/17 08:17:38;;;;;;;30.20;20.02;;;;;;;-143.21;63.75;71633.97;5075833;28;20579;-95
2023/09/17 08:20:09;;;;;;;31.80;21.35;;;;;;;-143.21;64.01;71647.84;5077284;28;20193;-94
2023/09/17 08:22:37;;;;;;;30.65;20.08;;;;;;;-143.21;64.69;71655.78;5076887;28;20206;-93
2023/09/17 08:25:05;;;;;;;30.73;20.67;;;;;;;-143.21;64.94;71675.59;5075145;28;20682;-83
2023/09/17 08:27:32;;;;;;;32.25;21.77;;;;;;;-143.21;65.37;71677.59;5072376;28;20221;-84
2023/09/17 08:30:03;;;;;;;35.88;21.90;;;;;;;-143.21;65.19;71675.59;5073802;28;20664;-87
2023/09/17 08:32:31;;;;;;;34.15;21.80;;;;;;;-143.21;65.23;71669.66;5074295;28;20228;-92
2023/09/17 08:35:00;;;;;;;34.92;22.52;;;;;;;-143.21;65.41;71653.78;5073418;28;20605;-85
2023/09/17 08:37:27;;;;;;;35.25;22.40;;;;;;;-143.21;65.47;71641.91;5072708;28;20201;-87
2023/09/17 08:39:53;;;;;;;35.47;21.75;;;;;;;-143.21;65.32;71630.00;5071590;28;20225;-83
2023/09/17 08:42:21;;;;;;;38.03;23.13;;;;;;;-143.21;64.46;71612.16;5070067;28;20702;-85
2023/09/17 08:44:50;;;;;;;35.42;22.80;;;;;;;-143.21;64.31;71598.28;5070600;28;20201;-84
2023/09/17 08:47:17;;;;;;;30.83;20.45;;;;;;;-143.21;63.74;71586.38;5069936;28;20723;-86
2023/09/17 08:49:44;;;;;;;33.30;21.60;;;;;;;-143.21;63.21;71572.50;5071092;28;20197;-84
2023/09/17 08:52:14;;;;;;;31.90;21.35;;;;;;;-143.21;63.06;71572.50;5066453;28;20189;-83
2023/09/17 08:54:42;;;;;;;33.08;22.15;;;;;;;-143.21;62.88;71560.59;5068938;28;20201;-83
2023/09/17 08:57:15;;;;;;;37.55;22.08;;;;;;;-143.21;62.77;71556.63;5070444;28;20209;-83
2023/09/17 08:59:45;;;;;;;36.53;22.35;;;;;;;-143.21;62.07;71542.75;5071335;28;20221;-85
2023/09/17 09:02:22;;;;;;;34.13;22.00;;;;;;;-143.21;61.89;71546.72;5071098;28;20587;-83
2023/09/17 09:04:50;;;;;;;38.88;22.48;;;;;;;-143.21;61.64;71546.72;5067466;28;20209;-83
2023/09/17 09:07:40;;;;;;;36.92;25.00;;;;;;;-143.21;61.87;71538.78;5070086;28;20778;-82
2023/09/17 09:10:25;;;;;;;28.80;20.83;;;;;;;-143.21;61.39;71538.78;5069664;28;20644;-85
2023/09/17 09:12:52;;;;;;;33.70;22.00;;;;;;;-143.21;61.28;71532.84;5069770;28;20204;-83
2023/09/17 09:15:19;;;;;;;31.23;20.33;;;;;;;-143.21;60.36;71511.03;5070041;28;20204;-82
2023/09/17 09:17:54;;;;;;;38.40;21.50;;;;;;;-143.21;60.64;71511.03;5067143;28;20213;-83
2023/09/17 09:20:22;;;;;;;31.95;21.42;;;;;;;-143.21;60.63;71495.19;5067194;28;20266;-84
2023/09/17 09:22:51;;;;;;;29.92;20.63;;;;;;;-143.21;60.38;71487.25;5071967;28;20208;-91
2023/09/17 09:25:18;;;;;;;29.40;20.30;;;;;;;-143.21;59.77;71469.41;5071145;28;20235;-84
2023/09/17 09:27:45;;;;;;;29.25;19.65;;;;;;;-143.21;59.25;71443.63;5069645;28;20653;-87
2023/09/17 09:30:14;;;;;;;25.60;18.70;;;;;;;-143.21;58.46;71417.84;5069793;28;20721;-83
2023/09/17 09:32:42;;;;;;;28.50;19.38;;;;;;;-143.21;57.84;71394.06;5070015;28;20696;-85
2023/09/17 09:35:10;;;;;;;31.65;20.13;;;;;;;-143.21;57.06;71362.34;5070393;28;20610;-89
2023/09/17 09:37:38;;;;;;;28.55;18.90;;;;;;;-143.21;56.16;71332.59;5069763;28;20292;-86
2023/09/17 09:40:09;;;;;;;32.08;19.20;;;;;;;-143.21;55.42;71290.97;5070041;28;20290;-92
2023/09/17 09:42:36;;;;;;;27.55;19.38;;;;;;;-143.21;55.25;71279.06;5069638;28;20209;-83
2023/09/17 09:45:04;;;;;;;27.02;18.70;;;;;;;-143.21;54.97;71279.06;5069968;28;20618;-87
2023/09/17 09:47:32;;;;;;;24.63;19.10;;;;;;;-143.21;54.42;71273.13;5069705;28;20225;-88
2023/09/17 09:50:00;;;;;;;28.90;19.13;;;;;;;-143.21;54.29;71255.28;5070145;28;20225;-88
2023/09/17 09:52:28;;;;;;;28.63;19.00;;;;;;;-143.21;53.82;71257.25;5070113;28;20651;-84
2023/09/17 09:54:55;;;;;;;25.70;18.33;;;;;;;-143.21;54.32;71257.25;5069682;28;20582;-90
2023/09/17 09:57:25;;;;;;;27.55;19.63;;;;;;;-143.21;54.33;71251.31;5069567;28;20216;-90
2023/09/17 09:59:52;;;;;;;25.83;18.48;;;;;;;-143.21;53.75;71225.53;5069090;28;20292;-84
2023/09/17 10:02:21;;;;;;;26.02;18.38;;;;;;;-143.21;53.38;71205.72;5069085;28;20206;-88
2023/09/17 10:04:49;;;;;;;23.15;17.73;;;;;;;-143.21;52.23;71158.13;5070348;28;20322;-88
2023/09/17 10:07:17;;;;;;;44.13;23.92;;;;;;;-143.21;51.86;71128.41;5069402;28;20237;-87
2023/09/17 10:09:44;;;;;;;33.58;21.73;;;;;;;-143.21;51.46;71120.47;5069618;28;20702;-86
2023/09/17 10:12:11;;;;;;;63.90;33.10;;;;;;;-143.21;51.80;71118.50;5069893;28;20599;-84
2023/09/17 10:14:43;;;;;;;33.03;20.08;;;;;;;-143.21;50.99;71106.59;5068721;28;20224;-83
2023/09/17 10:17:17;;;;;;;28.50;18.67;;;;;;;-143.21;50.55;71086.75;5069069;28;20219;-84
2023/09/17 10:19:56;;;;;;;28.65;20.00;;;;;;;-143.21;51.10;71098.66;5069118;28;20240;-82
2023/09/17 10:22:28;;;;;;;26.35;18.17;;;;;;;-143.21;51.05;71138.31;5066835;28;20204;-83
2023/09/17 10:25:07;;;;;;;30.80;20.05;;;;;;;-143.21;51.88;71160.13;5068415;28;20206;-84
2023/09/17 10:27:39;;;;;;;29.38;19.00;;;;;;;-143.21;52.03;71170.03;5068262;28;20770;-83
2023/09/17 10:30:16;;;;;;;31.55;21.30;;;;;;;-143.21;52.85;71170.03;5068637;28;20293;-84
2023/09/17 10:32:51;;;;;;;31.30;20.08;;;;;;;-143.21;52.37;71177.97;5067994;28;20197;-85
2023/09/17 10:35:19;;;;;;;33.35;21.52;;;;;;;-143.21;52.63;71172.00;5065408;28;20687;-83
2023/09/17 10:37:48;;;;;;;32.45;21.85;;;;;;;-143.21;52.04;71162.09;5069446;28;20208;-92
2023/09/17 10:40:15;;;;;;;35.40;19.67;;;;;;;-143.21;51.33;71152.19;5067152;28;20255;-92
2023/09/17 10:42:44;;;;;;;27.02;19.00;;;;;;;-143.21;51.48;71120.47;5071261;28;20655;-92
2023/09/17 10:45:13;;;;;;;33.85;20.83;;;;;;;-143.21;50.93;71084.78;5070483;28;20209;-93
2023/09/17 10:47:41;;;;;;;26.17;18.45;;;;;;;-143.21;49.86;71057.03;5069218;28;20229;-91
2023/09/17 10:50:10;;;;;;;30.67;19.80;;;;;;;-143.21;49.58;71029.28;5069635;28;20197;-92
2023/09/17 10:52:37;;;;;;;34.17;19.70;;;;;;;-143.21;49.15;71007.47;5069318;28;20209;-91
2023/09/17 10:55:07;;;;;;;25.02;18.63;;;;;;;-143.21;48.87;70989.63;5070457;28;20215;-93
2023/09/17 10:57:40;;;;;;;29.80;19.95;;;;;;;-143.21;48.84;71003.50;5071913;28;20563;-94
2023/09/17 11:00:13;;;;;;;29.08;19.38;;;;;;;-143.21;48.93;71015.41;5071782;28;20254;-93
2023/09/17 11:02:45;;;;;;;25.98;19.05;;;;;;;-143.21;49.12;71049.09;5069952;28;20607;-89
2023/09/17 11:05:13;;;;;;;28.30;18.85;;;;;;;-143.21;49.48;71068.94;5070258;28;20223;-90
2023/09/17 11:07:47;;;;;;;25.90;19.15;;;;;;;-143.21;50.30;71049.09;5068892;28;20225;-85